| time (UTC) | temp C | wind direction | speed KPH | gust KPH | rain 1hr cm | rain 24hr cm | rain mn cm | humidity % | barometer mb |
| 20260508023021 | 8 | 241 | 0.0 | 4.8 | 0.00 | 2.34 | 2.34 | 94 | 1001.7 |
| 20260508021519 | 8 | 224 | 0.0 | 6.4 | 0.00 | 2.34 | 2.34 | 94 | 1001.8 |
| 20260508020018 | 8 | 207 | 0.0 | 9.7 | 0.00 | 2.34 | 2.34 | 94 | 1001.8 |
| 20260508014518 | 8 | 236 | 1.6 | 8.0 | 0.00 | 2.34 | 2.34 | 94 | 1001.9 |
| 20260508013017 | 8 | 243 | 3.2 | 8.0 | 0.00 | 2.34 | 2.34 | 94 | 1001.8 |
| 20260508011519 | 8 | 218 | 3.2 | 6.4 | 0.00 | 2.34 | 2.34 | 94 | 1001.7 |
| 20260508010023 | 8 | 212 | 3.2 | 8.0 | 0.00 | 2.34 | 2.34 | 94 | 1002.0 |
| 20260508004516 | 9 | 245 | 3.2 | 9.7 | 0.00 | 2.34 | 2.34 | 94 | 1002.4 |
| 20260508003015 | 8 | 213 | 3.2 | 9.7 | 0.00 | 2.34 | 2.34 | 94 | 1002.2 |
| 20260508001515 | 8 | 191 | 1.6 | 8.0 | 0.00 | 2.34 | 2.34 | 94 | 1002.1 |
| 20260508000014 | 8 | 232 | 1.6 | 9.7 | 0.00 | 2.34 | 2.34 | 94 | 1002.4 |
| 20260507234514 | 8 | 225 | 1.6 | 8.0 | 0.00 | 2.34 | 2.34 | 94 | 1002.2 |
| 20260507233014 | 9 | 225 | 3.2 | 12.9 | 0.00 | 2.34 | 2.34 | 94 | 1002.3 |
| 20260507231517 | 8 | 191 | 3.2 | 8.0 | 0.00 | 2.34 | 2.34 | 94 | 1002.6 |
| 20260507230013 | 8 | 224 | 4.8 | 12.9 | 0.00 | 2.34 | 2.34 | 93 | 1002.9 |
| 20260507224511 | 8 | 136 | 0.0 | 14.5 | 0.00 | 2.34 | 2.34 | 93 | 1002.3 |
| 20260507223012 | 8 | 184 | 6.4 | 11.3 | 0.03 | 2.34 | 2.34 | 93 | 1002.8 |
| 20260507221511 | 8 | 169 | 8.0 | 17.7 | 0.03 | 2.34 | 2.34 | 93 | 1002.9 |
| 20260507220011 | 8 | 153 | 9.7 | 19.3 | 0.03 | 2.34 | 2.34 | 93 | 1002.9 |
| 20260507214510 | 8 | 207 | 4.8 | 12.9 | 0.05 | 2.34 | 2.34 | 93 | 1003.1 |
| 20260507213011 | 8 | 217 | 4.8 | 20.9 | 0.18 | 2.31 | 2.31 | 93 | 1003.3 |
| 20260507211509 | 8 | 178 | 11.3 | 29.0 | 0.38 | 2.31 | 2.31 | 93 | 1002.0 |
| 20260507210005 | 8 | 132 | 6.4 | 19.3 | 0.61 | 2.31 | 2.31 | 93 | 1003.0 |
| 20260507204503 | 8 | 135 | 4.8 | 16.1 | 0.89 | 2.31 | 2.31 | 93 | 1003.7 |
| 20260507203059 | 9 | 207 | 6.4 | 12.9 | 0.99 | 2.13 | 2.13 | 93 | 1003.9 |
| 20260507201604 | 9 | 88 | 0.0 | 6.4 | 1.07 | 1.93 | 1.93 | 92 | 1004.4 |
| 20260507200056 | 10 | 257 | 8.0 | 20.9 | 0.99 | 1.70 | 1.70 | 92 | 1005.0 |
| 20260507194559 | 10 | 181 | 8.0 | 17.7 | 0.89 | 1.42 | 1.42 | 92 | 1005.1 |
| 20260507193052 | 10 | 169 | 4.8 | 35.4 | 0.81 | 1.17 | 1.17 | 92 | 1004.6 |
| 20260507191610 | 10 | 167 | 16.1 | 27.4 | 0.61 | 0.89 | 0.89 | 92 | 1004.7 |
| 20260507190048 | 10 | 183 | 9.7 | 27.4 | 0.46 | 0.71 | 0.71 | 92 | 1005.1 |
| 20260507184556 | 10 | 181 | 9.7 | 27.4 | 0.30 | 0.53 | 0.53 | 92 | 1005.6 |
| 20260507183047 | 10 | 178 | 8.0 | 27.4 | 0.10 | 0.33 | 0.33 | 92 | 1005.7 |
| 20260507181543 | 10 | 185 | 12.9 | 27.4 | 0.05 | 0.28 | 0.28 | 91 | 1005.3 |
| 20260507180043 | 10 | 157 | 6.4 | 25.7 | 0.03 | 0.25 | 0.25 | 90 | 1005.4 |
| 20260507174542 | 11 | 209 | 16.1 | 25.7 | 0.00 | 0.23 | 0.23 | 90 | 1005.7 |
| 20260507173039 | 11 | 157 | 14.5 | 33.8 | 0.00 | 0.23 | 0.23 | 90 | 1005.9 |
| 20260507171537 | 11 | 219 | 9.7 | 24.1 | 0.00 | 0.23 | 0.23 | 90 | 1006.2 |
| 20260507170036 | 11 | 123 | 9.7 | 30.6 | 0.00 | 0.23 | 0.23 | 91 | 1006.4 |
| 20260507164543 | 11 | 190 | 9.7 | 29.0 | 0.00 | 0.23 | 0.23 | 91 | 1006.7 |
| 20260507163036 | 11 | 175 | 12.9 | 27.4 | 0.00 | 0.23 | 0.23 | 90 | 1007.2 |
| 20260507161529 | 11 | 221 | 8.0 | 25.7 | 0.00 | 0.23 | 0.23 | 90 | 1007.9 |
| 20260507160033 | 11 | 154 | 8.0 | 27.4 | 0.00 | 0.23 | 0.23 | 91 | 1008.0 |
| 20260507154526 | 11 | 207 | 12.9 | 29.0 | 0.00 | 0.23 | 0.23 | 91 | 1008.4 |
| 20260507153023 | 11 | 135 | 8.0 | 29.0 | 0.00 | 0.23 | 0.23 | 91 | 1008.7 |
| 20260507151522 | 11 | 210 | 11.3 | 22.5 | 0.00 | 0.23 | 0.23 | 91 | 1009.1 |
| 20260507150022 | 11 | 209 | 11.3 | 25.7 | 0.00 | 0.23 | 0.23 | 91 | 1009.4 |
| 20260507144518 | 11 | 193 | 6.4 | 19.3 | 0.00 | 0.23 | 0.23 | 92 | 1009.7 |
| 20260507143031 | 11 | 181 | 6.4 | 20.9 | 0.00 | 0.23 | 0.23 | 92 | 1010.1 |
| 20260507141512 | 11 | 209 | 12.9 | 25.7 | 0.00 | 0.23 | 0.23 | 92 | 1010.5 |
| 20260507140011 | 11 | 202 | 8.0 | 27.4 | 0.00 | 0.23 | 0.23 | 92 | 1010.7 |
| 20260507134512 | 11 | 188 | 9.7 | 22.5 | 0.00 | 0.23 | 0.23 | 92 | 1010.5 |
| 20260507133010 | 10 | 196 | 11.3 | 35.4 | 0.00 | 0.23 | 0.23 | 92 | 1011.1 |
| 20260507131511 | 10 | 128 | 11.3 | 30.6 | 0.00 | 0.23 | 0.23 | 92 | 1010.9 |
| 20260507130021 | 10 | 175 | 17.7 | 30.6 | 0.03 | 0.23 | 0.23 | 92 | 1010.8 |
| 20260507124505 | 10 | 172 | 14.5 | 32.2 | 0.03 | 0.23 | 0.23 | 92 | 1010.7 |
| 20260507123002 | 10 | 149 | 17.7 | 32.2 | 0.03 | 0.23 | 0.23 | 92 | 1011.0 |
| 20260507121600 | 10 | 161 | 12.9 | 27.4 | 0.03 | 0.23 | 0.23 | 92 | 1011.7 |
| 20260507120058 | 10 | 178 | 16.1 | 32.2 | 0.00 | 0.23 | 0.23 | 92 | 1011.7 |
| 20260507114559 | 11 | 198 | 11.3 | 29.0 | 0.00 | 0.23 | 0.23 | 93 | 1012.4 |
| 20260507113056 | 11 | 194 | 12.9 | 30.6 | 0.00 | 0.23 | 0.23 | 93 | 1012.2 |
| 20260507111555 | 10 | 142 | 11.3 | 27.4 | 0.00 | 0.23 | 0.23 | 93 | 1012.5 |
| 20260507110055 | 10 | 179 | 11.3 | 25.7 | 0.00 | 0.23 | 0.23 | 93 | 1012.0 |
| 20260507104556 | 10 | 169 | 9.7 | 19.3 | 0.00 | 0.23 | 0.23 | 92 | 1012.5 |
| 20260507103047 | 10 | 146 | 8.0 | 16.1 | 0.00 | 0.23 | 0.23 | 92 | 1012.9 |
| 20260507101546 | 10 | 179 | 8.0 | 17.7 | 0.00 | 0.23 | 0.23 | 92 | 1012.9 |
| 20260507100053 | 10 | 163 | 8.0 | 20.9 | 0.00 | 0.23 | 0.23 | 92 | 1012.9 |
| 20260507094541 | 10 | 107 | 4.8 | 11.3 | 0.03 | 0.23 | 0.23 | 92 | 1013.0 |
| 20260507093040 | 10 | 203 | 11.3 | 27.4 | 0.05 | 0.23 | 0.23 | 92 | 1013.3 |
| 20260507091541 | 11 | 173 | 9.7 | 27.4 | 0.10 | 0.23 | 0.23 | 92 | 1013.1 |
| 20260507090043 | 11 | 175 | 8.0 | 29.0 | 0.15 | 0.23 | 0.23 | 93 | 1013.2 |
| 20260507084543 | 11 | 200 | 6.4 | 25.7 | 0.15 | 0.20 | 0.20 | 93 | 1013.2 |
| 20260507083035 | 10 | 155 | 9.7 | 22.5 | 0.15 | 0.15 | 0.15 | 93 | 1013.3 |
| 20260507081534 | 10 | 183 | 8.0 | 19.3 | 0.13 | 0.13 | 0.13 | 93 | 1013.3 |
| 20260507080032 | 10 | 179 | 1.6 | 12.9 | 0.08 | 0.08 | 0.08 | 92 | 1013.5 |
| 20260507074530 | 10 | 205 | 1.6 | 9.7 | 0.05 | 0.05 | 0.05 | 92 | 1014.0 |
| 20260507073031 | 10 | 184 | 3.2 | 14.5 | 0.03 | 0.03 | 0.03 | 92 | 1014.3 |
| 20260507071534 | 10 | 186 | 9.7 | 24.1 | 0.00 | 0.00 | 0.00 | 92 | 1014.3 |
| 20260507070032 | 10 | 115 | 11.3 | 22.5 | 0.00 | 0.00 | 0.00 | 92 | 1014.2 |
| 20260507064535 | 10 | 205 | 6.4 | 14.5 | 0.00 | 0.00 | 0.00 | 92 | 1014.5 |
| 20260507063022 | 10 | 229 | 6.4 | 14.5 | 0.00 | 0.00 | 0.00 | 92 | 1014.5 |
| 20260507061520 | 10 | 196 | 4.8 | 9.7 | 0.00 | 0.00 | 0.00 | 92 | 1014.8 |
| 20260507060018 | 10 | 180 | 6.4 | 17.7 | 0.00 | 0.00 | 0.00 | 92 | 1015.1 |
| 20260507054516 | 10 | 225 | 0.0 | 3.2 | 0.00 | 0.00 | 0.00 | 92 | 1015.2 |
| 20260507053013 | 10 | 231 | 1.6 | 8.0 | 0.00 | 0.00 | 0.00 | 92 | 1015.5 |
| 20260507051512 | 10 | 178 | 3.2 | 8.0 | 0.00 | 0.00 | 0.00 | 92 | 1015.7 |
| 20260507050029 | 10 | 229 | 3.2 | 9.7 | 0.00 | 0.00 | 0.00 | 92 | 1016.4 |
| 20260507044508 | 10 | 200 | 3.2 | 8.0 | 0.00 | 0.00 | 0.00 | 92 | 1016.4 |
| 20260507043106 | 10 | 231 | 4.8 | 11.3 | 0.00 | 0.00 | 0.00 | 92 | 1016.8 |
| 20260507041510 | 10 | 213 | 4.8 | 11.3 | 0.00 | 0.00 | 0.00 | 92 | 1017.0 |
| 20260507040001 | 10 | 169 | 6.4 | 14.5 | 0.00 | 0.00 | 0.00 | 92 | 1017.2 |
| 20260507034559 | 10 | 231 | 4.8 | 12.9 | 0.00 | 0.00 | 0.00 | 91 | 1017.5 |
| 20260507033057 | 10 | 195 | 4.8 | 16.1 | 0.00 | 0.00 | 0.00 | 91 | 1017.6 |
| 20260507031555 | 10 | 219 | 9.7 | 19.3 | 0.00 | 0.00 | 0.00 | 91 | 1017.7 |
| 20260507030052 | 11 | 218 | 8.0 | 22.5 | 0.00 | 0.00 | 0.00 | 90 | 1018.0 |
| 20260507024552 | 11 | 215 | 4.8 | 22.5 | 0.00 | 0.00 | 0.00 | 90 | 1018.0 |